Latest Weather Observations for Sheffield

IDT60801

Issued at 11:35 am EDT Thursday 23 October 2014 (issued every 30 minutes, with the page automatically refreshed every 10 minutes)

About weather observations | Map of weather stations | Latest weather observations for TAS | Other Formats
Station Details ID: 091291 Name: SHEFFIELD SCHOOL FARM Lat: -41.39 Lon: 146.32 Height: 294.2 m
Data from the previous 72 hours. | See also: Recent months at Sheffield
Date/Time
EDT
Temp
°C
App
Temp
°C
Dew
Point
Rel
Hum
%
Delta-T
°C
Wind Press
QNH
hPa
Press
MSL
hPa
Rain
since 9 am
mm
Dir
 
Spd
km/h
Gust
km/h
Spd
kts
Gust
kts
23/11:30am 15.4 10.4 6.4 55 4.4 E 22 30 12 16 1022.5 1022.8 0.0
23/11:00am 14.5 9.6 5.3 54 4.4 E 20 30 11 16 1022.7 1022.9 0.0
23/10:30am 14.4 9.8 6.7 60 3.8 E 20 26 11 14 1022.5 1022.8 0.0
23/10:00am 13.4 8.1 6.7 64 3.3 ESE 24 30 13 16 1022.3 1022.6 0.0
23/09:30am 12.5 7.7 7.2 70 2.6 E 22 30 12 16 1022.2 1022.5 0.0
23/09:00am 10.7 5.3 6.5 75 2.0 ESE 24 39 13 21 1022.1 1022.4 0.0
23/08:30am 11.9 6.9 8.2 78 1.8 E 24 33 13 18 1022.0 1022.3 0.0
23/08:00am 11.1 6.1 8.1 82 1.5 ESE 24 30 13 16 1021.7 1021.9 0.0
23/07:30am 10.7 6.1 8.3 85 1.2 ESE 22 28 12 15 1021.1 1021.3 0.0
23/07:00am 10.0 6.8 8.6 91 0.7 SE 15 20 8 11 1020.6 1020.8 0.0
23/06:30am 9.2 6.7 8.0 92 0.6 SE 11 15 6 8 1020.0 1020.2 0.0
23/06:00am 9.5 5.8 8.1 91 0.7 SE 17 20 9 11 1019.6 1019.8 0.0
23/05:30am 9.8 6.6 8.4 91 0.7 ESE 15 20 8 11 1019.3 1019.5 0.0
23/05:00am 10.3 6.4 8.7 90 0.8 SE 19 28 10 15 1018.8 1019.0 0.0
23/04:30am 10.3 5.8 8.6 89 0.8 ESE 22 30 12 16 1018.4 1018.6 0.0
23/04:00am 10.4 6.3 8.5 88 0.9 ESE 20 28 11 15 1018.1 1018.3 0.0
23/03:30am 9.2 6.7 8.0 92 0.6 ESE 11 15 6 8 1017.7 1017.9 0.0
23/03:00am 9.6 7.5 8.2 91 0.7 SE 9 11 5 6 1017.6 1017.8 0.0
23/02:30am 9.7 8.0 8.5 92 0.6 SSE 7 7 4 4 1017.6 1017.8 0.0
23/02:00am 9.6 7.5 8.2 91 0.7 SSE 9 9 5 5 1017.4 1017.6 0.0
23/01:30am 10.2 9.7 9.4 95 0.4 ESE 2 4 1 2 1017.4 1017.6 0.0
23/01:00am 9.5 8.3 8.1 91 0.7 ESE 4 7 2 4 1017.7 1017.9 0.0
23/12:30am 9.3 7.8 8.4 94 0.4 WSW 6 7 3 4 1017.6 1017.8 0.0
23/12:00am 9.8 8.4 8.9 94 0.4 E 6 7 3 4 1017.3 1017.5 0.0
 
Date/Time
EDT
Temp
°C
App
Temp
°C
Dew
Point
Rel
Hum
%
Delta-T
°C
Wind Press
QNH
hPa
Press
MSL
hPa
Rain
since 9 am
mm
Dir
 
Spd
km/h
Gust
km/h
Spd
kts
Gust
kts
22/11:30pm 8.9 6.3 7.7 92 0.6 E 11 13 6 7 1017.1 1017.3 0.0
22/11:00pm 11.3 11.1 9.2 87 1.1 CALM 0 0 0 0 1016.4 1016.6 0.0
22/10:30pm 11.3 10.3 8.9 85 1.2 SSE 4 7 2 4 1016.3 1016.5 0.0
22/10:00pm 11.7 10.4 9.1 84 1.3 ESE 6 7 3 4 1016.1 1016.3 0.0
22/09:30pm 11.5 10.1 8.7 83 1.4 NE 6 6 3 3 1016.4 1016.6 0.0
22/09:00pm 12.3 10.4 9.1 81 1.6 N 9 11 5 6 1016.4 1016.6 0.0
22/08:30pm 12.9 11.7 9.5 80 1.8 NNW 6 9 3 5 1016.1 1016.3 0.0
22/08:00pm 13.0 10.4 9.4 79 1.9 NNW 13 17 7 9 1015.3 1015.5 0.0
22/07:30pm 13.7 12.1 10.1 79 1.9 NNW 9 13 5 7 1015.4 1015.6 0.0
22/07:00pm 14.6 12.0 10.6 77 2.1 NW 15 22 8 12 1015.9 1016.0 0.0
22/06:30pm 15.0 14.0 10.2 73 2.5 N 6 9 3 5 1015.1 1015.3 0.0
22/06:00pm 15.4 13.6 10.8 74 2.5 N 11 15 6 8 1015.6 1015.7 0.0
22/05:30pm 15.7 11.8 10.9 73 2.6 NNW 22 39 12 21 1016.8 1017.0 0.0
22/05:00pm 16.4 14.3 11.3 72 2.8 N 13 17 7 9 1015.9 1016.0 0.0
22/04:30pm 16.9 14.8 11.2 69 3.1 N 13 20 7 11 1016.0 1016.1 0.0
22/04:00pm 17.4 15.5 11.7 69 3.2 NNW 13 15 7 8 1016.5 1016.7 0.0
22/03:30pm 18.4 16.8 11.5 64 3.8 N 11 17 6 9 1016.7 1016.9 0.0
22/03:00pm 19.0 17.5 10.6 58 4.6 NW 9 15 5 8 1016.8 1017.0 0.0
22/02:30pm 18.2 17.1 10.8 62 4.0 NNW 7 13 4 7 1017.1 1017.3 0.0
22/02:00pm 18.3 16.8 10.4 60 4.3 NNW 9 19 5 10 1017.5 1017.7 0.0
22/01:30pm 17.6 15.8 9.5 59 4.3 NNW 9 15 5 8 1018.0 1018.2 0.0
22/01:00pm 16.9 15.6 9.3 61 4.0 WNW 6 11 3 6 1018.7 1018.9 0.0
22/12:30pm 16.2 14.9 9.2 63 3.7 W 6 13 3 7 1019.3 1019.5 0.0
22/12:00pm 15.4 14.8 8.9 65 3.4 W 2 7 1 4 1020.0 1020.2 0.0
22/11:30am 15.3 14.8 9.2 67 3.2 S 2 6 1 3 1020.5 1020.7 0.0
22/11:00am 14.3 12.7 7.8 65 3.3 ESE 6 9 3 5 1021.0 1021.2 0.0
22/10:30am 14.5 14.0 8.0 65 3.3 CALM 0 4 0 2 1021.6 1021.8 0.0
22/10:00am 13.6 12.0 7.8 68 2.9 SE 6 15 3 8 1022.0 1022.3 0.0
22/09:30am 12.7 11.7 7.4 70 2.6 S 2 6 1 3 1022.1 1022.4 0.0
22/09:00am 11.9 10.1 7.2 73 2.3 S 6 9 3 5 1022.0 1022.3 -
22/08:30am 11.2 9.9 7.5 78 1.8 SSE 4 6 2 3 1022.5 1022.8 -
22/08:00am 10.3 9.2 6.8 79 1.7 SSE 2 6 1 3 1023.0 1023.2 -
22/07:30am 9.8 8.2 6.5 80 1.6 SSE 4 6 2 3 1022.8 1023.0 -
22/07:00am 9.4 7.5 6.5 82 1.4 ESE 6 7 3 4 1023.1 1023.3 -
22/06:30am 9.4 7.4 6.1 80 1.5 SE 6 7 3 4 1023.2 1023.4 -
22/06:00am 9.1 7.0 6.0 81 1.4 SE 6 7 3 4 1023.2 1023.4 -
22/05:30am 9.2 7.1 5.9 80 1.5 SE 6 7 3 4 1023.4 1023.6 -
22/05:00am 9.1 7.0 6.0 81 1.4 SE 6 7 3 4 1023.7 1023.9 -
22/04:30am 9.0 7.0 6.1 82 1.4 SE 6 7 3 4 1024.1 1024.3 -
22/04:00am 9.1 6.9 6.0 81 1.4 SE 7 9 4 5 1024.4 1024.6 -
22/03:30am 9.2 7.1 5.9 80 1.5 ESE 6 7 3 4 1024.9 1025.2 -
22/03:00am 9.1 7.0 5.8 80 1.5 SE 6 9 3 5 1025.4 1025.7 0.0
22/02:30am 9.0 6.7 5.9 81 1.4 ESE 7 9 4 5 1026.0 1026.3 -
22/02:00am 8.8 6.7 5.7 81 1.4 ESE 6 7 3 4 1026.5 1026.7 -
22/01:30am 8.7 6.5 6.0 83 1.3 SE 7 9 4 5 1027.0 1027.2 -
22/01:00am 8.9 5.9 5.8 81 1.4 SE 11 13 6 7 1027.5 1027.7 -
22/12:30am 8.5 6.3 6.1 85 1.1 SE 7 11 4 6 1027.9 1028.2 -
22/12:00am 8.3 6.2 5.6 83 1.2 SE 6 7 3 4 1028.3 1028.6 -
 
Date/Time
EDT
Temp
°C
App
Temp
°C
Dew
Point
Rel
Hum
%
Delta-T
°C
Wind Press
QNH
hPa
Press
MSL
hPa
Rain
since 9 am
mm
Dir
 
Spd
km/h
Gust
km/h
Spd
kts
Gust
kts
21/11:30pm 8.9 7.1 5.3 78 1.6 SE 4 6 2 3 1028.6 1028.9 -
21/11:00pm 8.6 6.7 4.8 77 1.7 ESE 4 6 2 3 1028.8 1029.1 -
21/10:30pm 9.0 7.0 4.6 74 2.0 E 4 7 2 4 1028.9 1029.2 -
21/10:00pm 8.9 6.4 4.5 74 2.0 ENE 7 15 4 8 1029.0 1029.3 -
21/09:30pm 9.8 7.9 4.8 71 2.3 NNE 4 7 2 4 1029.5 1029.8 -
21/09:00pm 9.9 7.7 5.1 72 2.2 NNE 6 11 3 6 1029.2 1029.5 0.0
21/08:30pm 9.5 7.1 5.1 74 2.0 N 7 11 4 6 1029.2 1029.5 -
21/08:00pm 9.8 7.3 5.0 72 2.2 N 7 11 4 6 1029.0 1029.3 -
21/07:30pm 10.8 7.6 4.9 67 2.7 N 11 19 6 10 1028.8 1029.1 -
21/07:00pm 11.8 8.6 5.0 63 3.1 N 11 17 6 9 1028.8 1029.1 -
21/06:30pm 12.6 9.1 5.5 62 3.4 N 13 20 7 11 1028.6 1028.9 -
21/06:00pm 13.4 10.3 5.6 59 3.7 N 11 17 6 9 1028.9 1029.2 -
21/05:30pm 13.8 10.3 5.4 57 4.0 N 13 19 7 10 1029.3 1029.6 -
21/05:00pm 14.1 9.5 5.7 57 4.0 NNW 19 24 10 13 1029.0 1029.3 -
21/04:30pm 14.7 11.1 6.8 59 3.9 N 15 22 8 12 1029.4 1029.7 -
21/04:00pm 14.9 11.1 5.7 54 4.4 N 15 22 8 12 1029.6 1029.9 -
21/03:30pm 14.7 10.5 5.8 55 4.3 N 17 26 9 14 1030.0 1030.2 -
21/03:00pm 15.0 11.6 5.8 54 4.4 N 13 22 7 12 1030.4 1030.7 -
21/02:30pm 14.9 11.8 5.4 53 4.6 N 11 22 6 12 1030.7 1031.0 -
21/02:00pm 13.7 10.4 4.8 55 4.2 NNE 11 19 6 10 1031.4 1031.7 -
21/11:30am 11.5 8.1 5.8 68 2.7 E 13 20 7 11 1033.2 1033.6 0.0
21/11:00am 11.0 7.7 6.6 74 2.1 E 13 19 7 10 1033.7 1034.0 0.0
21/10:30am 10.6 6.0 5.4 70 2.4 ENE 19 24 10 13 1033.9 1034.2 0.0
21/10:00am 10.6 6.9 6.4 75 2.0 ESE 15 22 8 12 1033.7 1034.0 0.0
21/09:30am 9.9 6.1 5.7 75 2.0 ESE 15 20 8 11 1033.7 1034.0 0.0
21/09:00am 9.2 5.4 5.6 78 1.6 ESE 15 22 8 12 1033.7 1034.0 0.0
21/08:30am 8.7 6.4 5.8 82 1.3 SE 7 11 4 6 1033.8 1034.1 0.0
21/08:00am 7.9 5.1 5.2 83 1.2 SE 9 11 5 6 1033.7 1034.0 0.0
21/07:30am 7.3 5.1 5.4 88 0.9 ESE 6 9 3 5 1033.3 1033.7 0.0
21/07:00am 6.8 4.4 5.1 89 0.8 SE 7 9 4 5 1033.0 1033.3 0.0
21/06:30am 6.4 3.5 4.7 89 0.8 SE 9 13 5 7 1032.9 1033.2 0.0
21/06:00am 6.3 4.0 4.6 89 0.7 SE 6 7 3 4 1032.6 1032.9 0.0
21/05:30am 6.3 3.4 4.8 90 0.7 ESE 9 9 5 5 1032.3 1032.6 0.0
21/05:00am 6.2 3.4 5.0 92 0.5 ESE 9 11 5 6 1032.3 1032.6 0.0
21/04:30am 6.6 3.7 4.9 89 0.8 E 9 17 5 9 1032.7 1033.0 0.0
21/04:00am 6.3 4.0 4.8 90 0.7 ESE 6 11 3 6 1032.8 1033.1 0.0
21/03:30am 6.3 3.8 4.6 89 0.7 SE 7 13 4 7 1032.9 1033.2 0.0
21/03:00am 5.0 2.3 3.8 92 0.5 SE 7 9 4 5 1033.1 1033.4 0.0
21/02:30am 4.2 1.3 2.7 90 0.6 ESE 7 7 4 4 1033.2 1033.6 0.0
21/02:00am 4.5 1.5 1.7 82 1.1 ESE 7 7 4 4 1033.5 1033.8 0.0
21/01:30am 4.9 2.0 1.7 80 1.3 SE 6 6 3 3 1033.8 1034.1 0.0
21/01:00am 4.1 1.2 2.6 90 0.6 ESE 7 7 4 4 1033.9 1034.2 0.0
21/12:30am 4.2 1.4 1.9 85 0.9 ESE 6 7 3 4 1034.2 1034.5 0.0
21/12:00am 4.8 2.3 1.7 80 1.2 ESE 4 6 2 3 1034.2 1034.5 0.0
 
Date/Time
EDT
Temp
°C
App
Temp
°C
Dew
Point
Rel
Hum
%
Delta-T
°C
Wind Press
QNH
hPa
Press
MSL
hPa
Rain
since 9 am
mm
Dir
 
Spd
km/h
Gust
km/h
Spd
kts
Gust
kts
20/11:30pm 4.4 1.6 2.1 85 0.9 SE 6 6 3 3 1034.4 1034.7 0.0
20/11:00pm 4.7 2.2 1.6 80 1.2 SE 4 6 2 3 1034.4 1034.7 0.0
20/10:30pm 5.2 2.6 1.1 75 1.6 SE 4 6 2 3 1034.4 1034.7 0.0
20/10:00pm 5.6 3.1 1.7 76 1.6 SSE 4 4 2 2 1034.5 1034.8 0.0
20/09:30pm 5.3 2.8 1.6 77 1.5 E 4 6 2 3 1034.2 1034.5 0.0
20/09:00pm 6.9 4.3 0.8 65 2.4 SSW 4 4 2 2 1034.2 1034.5 0.0
20/08:30pm 7.0 5.1 0.7 64 2.5 CALM 0 0 0 0 1033.5 1033.8 0.0
20/08:00pm 7.4 4.5 1.3 65 2.5 N 6 7 3 4 1033.2 1033.6 0.0
20/07:30pm 7.6 4.5 1.5 65 2.5 NNW 7 11 4 6 1032.9 1033.2 0.0
20/07:00pm 8.9 4.6 1.1 58 3.2 NNW 13 17 7 9 1032.7 1033.0 0.0
20/06:30pm 9.9 5.7 1.5 56 3.6 NNW 13 19 7 10 1032.5 1032.8 0.0
20/06:00pm 10.5 5.9 1.3 53 3.9 NNW 15 19 8 10 1032.5 1032.8 0.0
20/05:30pm 10.8 5.8 1.1 51 4.1 N 17 20 9 11 1032.4 1032.7 0.0
20/05:00pm 11.5 6.6 2.0 52 4.1 NNW 17 22 9 12 1032.2 1032.5 0.0
20/04:30pm 11.9 7.0 2.1 51 4.3 N 17 26 9 14 1032.1 1032.4 0.0
20/04:00pm 12.6 8.4 3.8 55 4.0 N 15 22 8 12 1032.0 1032.3 0.0
20/03:30pm 12.6 8.4 3.6 54 4.1 N 15 24 8 13 1032.2 1032.5 0.0
20/03:00pm 12.6 8.4 3.8 55 4.0 NNW 15 24 8 13 1032.3 1032.6 0.0
20/02:30pm 13.4 11.0 2.3 47 4.9 WSW 4 7 2 4 1032.5 1032.8 0.0
20/02:00pm 12.7 9.7 2.0 48 4.7 N 7 13 4 7 1032.7 1033.0 0.0
20/01:30pm 12.0 9.1 2.5 52 4.2 WNW 7 13 4 7 1033.0 1033.3 0.0
20/01:00pm 12.3 10.0 2.7 52 4.2 E 4 9 2 5 1033.2 1033.6 0.0
20/12:30pm 11.7 9.4 3.0 55 3.9 S 4 9 2 5 1033.3 1033.7 0.0
20/12:00pm 10.9 8.4 1.4 52 4.0 N 4 11 2 6 1033.6 1033.9 0.0

Other Formats:

Comma delimited format used in spreadsheet applications
http://www.bom.gov.au/fwo/IDT60801/IDT60801.94955.axf

JavaScript Object Notation format (JSON) in row-major order
http://www.bom.gov.au/fwo/IDT60801/IDT60801.94955.json